LHSM/SOB METAR and TAF weather

Enter ICAO airport designator
Station Type Date Time Source
LHSM METAR 2022/11/27 08:45 UTC NOAA

LHSM 270845Z AUTO 34007KT CAVOK 06/04 Q1030 NOSIG


Station Type Date Time Source
LHSM Decoded METAR 2022/11/27 08:45 UTC NOAA

Station name not available
Nov 27, 2022 - 03:45 AM EST / 2022.11.27 0845 UTC
Wind: from the NNW (340 degrees) at 8 MPH (7 KT):0
Visibility: greater than 7 mile(s):0
Temperature: 42 F (6 C)
Dew Point: 39 F (4 C)
Relative Humidity: 86%
Pressure (altimeter): 30.42 in. Hg (1030 hPa)
ob: LHSM 270845Z AUTO 34007KT CAVOK 06/04 Q1030 NOSIG
cycle: 9

Station Type Date Time Source
LHSM TAF UTC NOAA

Error!

Example: see airport list